createdAt,value
2017-08-14T00:00:23.824Z,985.58
2017-08-14T00:01:34.312Z,985.57
2017-08-14T00:02:44.801Z,985.58
2017-08-14T00:03:54.960Z,985.57
2017-08-14T00:05:05.124Z,985.6
2017-08-14T00:06:15.636Z,985.62
2017-08-14T00:07:25.802Z,985.65
2017-08-14T00:08:35.962Z,985.63
2017-08-14T00:09:46.121Z,985.67
2017-08-14T00:10:56.609Z,985.73
2017-08-14T00:12:07.103Z,985.73
2017-08-14T00:13:17.590Z,985.73
2017-08-14T00:14:27.747Z,985.78
2017-08-14T00:15:37.916Z,985.79
2017-08-14T00:16:48.401Z,985.78
2017-08-14T00:17:58.892Z,985.83
2017-08-14T00:19:09.377Z,985.8
2017-08-14T00:20:19.533Z,985.83
2017-08-14T00:21:30.019Z,985.84
2017-08-14T00:22:40.193Z,985.83
2017-08-14T00:23:50.680Z,985.87
2017-08-14T00:25:01.165Z,985.83
2017-08-14T00:26:11.656Z,985.9
2017-08-14T00:27:21.483Z,985.94
2017-08-14T00:28:31.949Z,985.94
2017-08-14T00:29:42.219Z,985.98
2017-08-14T00:30:52.493Z,985.98
2017-08-14T00:32:02.763Z,986
2017-08-14T00:33:12.716Z,986.01
2017-08-14T00:34:22.984Z,986.03
2017-08-14T00:35:33.253Z,986.06
2017-08-14T00:36:43.522Z,986.06
2017-08-14T00:37:53.791Z,986.07
2017-08-14T00:39:04.072Z,986.04
2017-08-14T00:40:14.338Z,986.08
2017-08-14T00:41:24.609Z,986.04
2017-08-14T00:42:34.878Z,986.09
2017-08-14T00:43:44.832Z,986.09
2017-08-14T00:44:55.105Z,986.07
2017-08-14T00:46:05.375Z,986.07
2017-08-14T00:47:15.645Z,986.11
2017-08-14T00:48:25.598Z,986.07
2017-08-14T00:49:35.864Z,986.08
2017-08-14T00:50:46.134Z,986.13
2017-08-14T00:51:56.401Z,986.06
2017-08-14T00:53:06.668Z,986.09
2017-08-14T00:54:16.936Z,986.05
2017-08-14T00:55:26.894Z,986.05
2017-08-14T00:56:37.165Z,986.05
2017-08-14T00:57:47.119Z,986.09
2017-08-14T00:58:57.395Z,986.12
2017-08-14T01:00:07.347Z,986.12
2017-08-14T01:01:17.623Z,986.12
2017-08-14T01:02:27.575Z,986.11
2017-08-14T01:03:37.862Z,986.11
2017-08-14T01:04:48.125Z,986.1
2017-08-14T01:05:58.075Z,986.11
2017-08-14T01:07:08.344Z,986.15
2017-08-14T01:08:18.623Z,986.11
2017-08-14T01:09:28.907Z,986.12
2017-08-14T01:10:39.177Z,986.16
2017-08-14T01:11:49.446Z,986.14
2017-08-14T01:12:59.714Z,986.17
2017-08-14T01:14:09.981Z,986.16
2017-08-14T01:15:20.248Z,986.18
2017-08-14T01:16:30.199Z,986.19
2017-08-14T01:17:40.465Z,986.22
2017-08-14T01:18:50.105Z,986.22
2017-08-14T01:20:00.371Z,986.28
2017-08-14T01:21:10.340Z,986.24
2017-08-14T01:22:20.710Z,986.23
2017-08-14T01:23:30.660Z,986.24
2017-08-14T01:24:40.925Z,986.25
2017-08-14T01:25:51.191Z,986.27
2017-08-14T01:27:01.467Z,986.32
2017-08-14T01:28:11.419Z,986.3
2017-08-14T01:29:21.683Z,986.29
2017-08-14T01:30:31.949Z,986.32
2017-08-14T01:31:41.900Z,986.32
2017-08-14T01:32:52.167Z,986.3
2017-08-14T01:34:02.120Z,986.29
2017-08-14T01:35:12.386Z,986.3
2017-08-14T01:36:22.654Z,986.26
2017-08-14T01:37:32.605Z,986.32
2017-08-14T01:38:42.870Z,986.31
2017-08-14T01:39:53.143Z,986.3
2017-08-14T01:41:03.096Z,986.35
2017-08-14T01:42:13.363Z,986.35
2017-08-14T01:43:23.314Z,986.31
2017-08-14T01:44:33.267Z,986.33
2017-08-14T01:45:43.533Z,986.34
2017-08-14T01:46:53.805Z,986.38
2017-08-14T01:48:03.760Z,986.36
2017-08-14T01:49:14.031Z,986.36
2017-08-14T01:50:24.301Z,986.36
2017-08-14T01:51:34.570Z,986.35
2017-08-14T01:52:44.840Z,986.35
2017-08-14T01:53:55.107Z,986.38
2017-08-14T01:55:05.103Z,986.4
2017-08-14T01:56:15.056Z,986.49
2017-08-14T01:57:24.694Z,986.46
2017-08-14T01:58:34.969Z,986.5
2017-08-14T01:59:45.236Z,986.45
2017-08-14T02:00:55.506Z,986.48
2017-08-14T02:02:05.774Z,986.49
2017-08-14T02:03:16.039Z,986.5
2017-08-14T02:04:25.991Z,986.46
2017-08-14T02:05:36.262Z,986.5
2017-08-14T02:06:46.535Z,986.48
2017-08-14T02:07:56.801Z,986.51
2017-08-14T02:09:07.066Z,986.49
2017-08-14T02:10:17.330Z,986.49
2017-08-14T02:11:26.965Z,986.54
2017-08-14T02:12:37.239Z,986.5
2017-08-14T02:13:47.193Z,986.51
2017-08-14T02:14:57.463Z,986.54
2017-08-14T02:16:07.836Z,986.56
2017-08-14T02:17:18.101Z,986.51
2017-08-14T02:18:28.366Z,986.56
2017-08-14T02:19:38.634Z,986.54
2017-08-14T02:20:48.908Z,986.54
2017-08-14T02:21:59.174Z,986.61
2017-08-14T02:23:08.827Z,986.57
2017-08-14T02:24:18.774Z,986.58
2017-08-14T02:25:29.039Z,986.57
2017-08-14T02:26:39.309Z,986.56
2017-08-14T02:27:49.263Z,986.59
2017-08-14T02:28:59.530Z,986.58
2017-08-14T02:30:09.799Z,986.61
2017-08-14T02:31:20.070Z,986.62
2017-08-14T02:32:30.357Z,986.68
2017-08-14T02:33:40.626Z,986.7
2017-08-14T02:34:50.899Z,986.71
2017-08-14T02:36:00.848Z,986.7
2017-08-14T02:37:11.117Z,986.67
2017-08-14T02:38:21.069Z,986.62
2017-08-14T02:39:31.338Z,986.61
2017-08-14T02:40:41.616Z,986.65
2017-08-14T02:41:51.568Z,986.64
2017-08-14T02:43:01.836Z,986.61
2017-08-14T02:44:12.101Z,986.64
2017-08-14T02:45:22.686Z,986.65
2017-08-14T02:46:32.959Z,986.64
2017-08-14T02:47:43.236Z,986.7
2017-08-14T02:48:53.188Z,986.66
2017-08-14T02:50:03.460Z,986.69
2017-08-14T02:51:13.440Z,986.69
2017-08-14T02:52:23.736Z,986.7
2017-08-14T02:53:34.009Z,986.62
2017-08-14T02:54:44.277Z,986.62
2017-08-14T02:55:54.545Z,986.66
2017-08-14T02:57:04.812Z,986.64
2017-08-14T02:58:15.078Z,986.68
2017-08-14T02:59:25.342Z,986.69
2017-08-14T03:00:35.604Z,986.69
2017-08-14T03:01:45.874Z,986.73
2017-08-14T03:02:56.139Z,986.73
2017-08-14T03:04:06.409Z,986.72
2017-08-14T03:05:16.363Z,986.76
2017-08-14T03:06:26.634Z,986.72
2017-08-14T03:07:36.899Z,986.75
2017-08-14T03:08:47.172Z,986.75
2017-08-14T03:09:57.123Z,986.76
2017-08-14T03:11:07.077Z,986.76
2017-08-14T03:12:17.342Z,986.79
2017-08-14T03:13:27.607Z,986.76
2017-08-14T03:14:37.564Z,986.8
2017-08-14T03:15:47.516Z,986.81
2017-08-14T03:16:57.789Z,986.86
2017-08-14T03:18:08.055Z,986.84
2017-08-14T03:19:18.320Z,986.85
2017-08-14T03:20:28.588Z,986.87
2017-08-14T03:21:38.855Z,986.88
2017-08-14T03:22:49.121Z,986.87
2017-08-14T03:23:59.073Z,986.92
2017-08-14T03:25:09.346Z,986.9
2017-08-14T03:26:19.301Z,986.94
2017-08-14T03:27:29.569Z,986.95
2017-08-14T03:28:39.523Z,986.92
2017-08-14T03:29:49.473Z,987.02
2017-08-14T03:30:59.738Z,987
2017-08-14T03:32:10.033Z,987.04
2017-08-14T03:33:20.303Z,987.08
2017-08-14T03:34:30.258Z,987.1
2017-08-14T03:35:40.224Z,987.08
2017-08-14T03:36:50.498Z,987.08
2017-08-14T03:38:00.771Z,987.12
2017-08-14T03:39:11.044Z,987.14
2017-08-14T03:40:20.993Z,987.16
2017-08-14T03:41:30.942Z,987.18
2017-08-14T03:42:41.207Z,987.16
2017-08-14T03:43:50.843Z,987.21
2017-08-14T03:45:01.114Z,987.28
2017-08-14T03:46:11.380Z,987.25
2017-08-14T03:47:21.337Z,987.24
2017-08-14T03:48:31.608Z,987.26
2017-08-14T03:49:41.871Z,987.25
2017-08-14T03:50:52.129Z,987.25
2017-08-14T03:52:02.084Z,987.29
2017-08-14T03:53:12.037Z,987.27
2017-08-14T03:54:22.301Z,987.4
2017-08-14T03:55:32.254Z,987.31
2017-08-14T03:56:42.519Z,987.34
2017-08-14T03:57:52.155Z,987.36
2017-08-14T03:59:02.107Z,987.37
2017-08-14T04:00:12.375Z,987.36
2017-08-14T04:01:22.648Z,987.4
2017-08-14T04:02:32.942Z,987.39
2017-08-14T04:03:42.896Z,987.43
2017-08-14T04:04:52.848Z,987.44
2017-08-14T04:06:03.118Z,987.44
2017-08-14T04:07:13.076Z,987.46
2017-08-14T04:08:23.361Z,987.51
2017-08-14T04:09:33.625Z,987.48
2017-08-14T04:10:43.911Z,987.48
2017-08-14T04:11:54.175Z,987.45
2017-08-14T04:13:04.442Z,987.44
2017-08-14T04:14:14.720Z,987.51
2017-08-14T04:15:24.992Z,987.42
2017-08-14T04:16:35.264Z,987.43
2017-08-14T04:17:44.906Z,987.42
2017-08-14T04:18:54.858Z,987.43
2017-08-14T04:20:05.128Z,987.38
2017-08-14T04:21:14.767Z,987.39
2017-08-14T04:22:24.721Z,987.46
2017-08-14T04:23:34.988Z,987.45
2017-08-14T04:24:45.267Z,987.42
2017-08-14T04:25:55.541Z,987.53
2017-08-14T04:27:05.809Z,987.49
2017-08-14T04:28:16.074Z,987.52
2017-08-14T04:29:26.338Z,987.49
2017-08-14T04:30:36.289Z,987.54
2017-08-14T04:31:46.565Z,987.51
2017-08-14T04:32:56.827Z,987.55
2017-08-14T04:34:07.099Z,987.58
2017-08-14T04:35:17.057Z,987.59
2017-08-14T04:36:27.532Z,987.56
2017-08-14T04:37:37.482Z,987.58
2017-08-14T04:38:47.750Z,987.58
2017-08-14T04:39:57.700Z,987.57
2017-08-14T04:41:07.344Z,987.58
2017-08-14T04:42:17.612Z,987.6
2017-08-14T04:43:27.249Z,987.61
2017-08-14T04:44:36.890Z,987.59
2017-08-14T04:45:47.160Z,987.62
2017-08-14T04:46:57.426Z,987.61
2017-08-14T04:48:07.384Z,987.64
2017-08-14T04:49:17.663Z,987.66
2017-08-14T04:50:27.618Z,987.64
2017-08-14T04:51:37.572Z,987.69
2017-08-14T04:52:47.840Z,987.7
2017-08-14T04:53:58.145Z,987.66
2017-08-14T04:55:08.411Z,987.64
2017-08-14T04:56:17.734Z,987.67
2017-08-14T04:57:28.001Z,987.7
2017-08-14T04:58:38.268Z,987.66
2017-08-14T04:59:48.231Z,987.65
2017-08-14T05:00:58.502Z,987.67
2017-08-14T05:02:08.780Z,987.72
2017-08-14T05:03:19.047Z,987.74
2017-08-14T05:04:29.313Z,987.78
2017-08-14T05:05:39.578Z,987.79
2017-08-14T05:06:49.530Z,987.74
2017-08-14T05:07:59.794Z,987.79
2017-08-14T05:09:10.063Z,987.81
2017-08-14T05:10:20.335Z,987.81
2017-08-14T05:11:30.287Z,987.82
2017-08-14T05:12:40.553Z,987.84
2017-08-14T05:13:50.197Z,987.82
2017-08-14T05:15:00.463Z,987.84
2017-08-14T05:16:10.428Z,987.8
2017-08-14T05:17:20.694Z,987.8
2017-08-14T05:18:30.655Z,987.82
2017-08-14T05:19:40.930Z,987.82
2017-08-14T05:20:51.197Z,987.82
2017-08-14T05:22:00.839Z,987.85
2017-08-14T05:23:10.794Z,987.86
2017-08-14T05:24:21.060Z,987.88
2017-08-14T05:25:31.325Z,987.87
2017-08-14T05:26:41.279Z,987.92
2017-08-14T05:27:51.228Z,987.91
2017-08-14T05:29:01.492Z,987.88
2017-08-14T05:30:11.447Z,987.87
2017-08-14T05:31:21.713Z,987.9
2017-08-14T05:32:31.980Z,987.9
2017-08-14T05:33:42.253Z,987.97
2017-08-14T05:34:52.524Z,987.94
2017-08-14T05:36:02.797Z,987.97
2017-08-14T05:37:12.753Z,987.98
2017-08-14T05:38:23.023Z,987.99
2017-08-14T05:39:32.661Z,987.93
2017-08-14T05:40:42.616Z,987.96
2017-08-14T05:41:52.603Z,987.94
2017-08-14T05:43:02.878Z,988
2017-08-14T05:44:12.860Z,988.03
2017-08-14T05:45:23.131Z,988.05
2017-08-14T05:46:32.768Z,988.04
2017-08-14T05:47:43.039Z,988.07
2017-08-14T05:48:53.308Z,988.06
2017-08-14T05:50:03.260Z,988.06
2017-08-14T05:51:13.539Z,988.11
2017-08-14T05:52:23.819Z,988.13
2017-08-14T05:53:34.089Z,988.12
2017-08-14T05:54:44.354Z,988.06
2017-08-14T05:55:54.657Z,988.1
2017-08-14T05:57:04.951Z,988.07
2017-08-14T05:58:14.905Z,988.07
2017-08-14T05:59:24.858Z,988.1
2017-08-14T06:00:34.816Z,988.1
2017-08-14T06:01:44.775Z,988.12
2017-08-14T06:02:55.046Z,988.14
2017-08-14T06:04:05.312Z,988.13
2017-08-14T06:05:15.578Z,988.19
2017-08-14T06:06:25.850Z,988.18
2017-08-14T06:07:35.811Z,988.2
2017-08-14T06:08:45.767Z,988.2
2017-08-14T06:09:55.722Z,988.18
2017-08-14T06:11:05.989Z,988.21
2017-08-14T06:12:16.257Z,988.27
2017-08-14T06:13:26.526Z,988.31
2017-08-14T06:14:36.795Z,988.28
2017-08-14T06:15:47.069Z,988.33
2017-08-14T06:16:57.349Z,988.37
2017-08-14T06:18:07.645Z,988.38
2017-08-14T06:19:19.065Z,988.41
2017-08-14T06:20:29.019Z,988.43
2017-08-14T06:21:38.979Z,988.44
2017-08-14T06:22:49.255Z,988.43
2017-08-14T06:23:59.574Z,988.46
2017-08-14T06:25:09.533Z,988.45
2017-08-14T06:26:19.484Z,988.45
2017-08-14T06:27:29.757Z,988.46
2017-08-14T06:28:39.710Z,988.49
2017-08-14T06:29:49.667Z,988.5
2017-08-14T06:30:59.936Z,988.54
2017-08-14T06:32:10.241Z,988.51
2017-08-14T06:33:20.512Z,988.53
2017-08-14T06:34:31.069Z,988.53
2017-08-14T06:35:41.025Z,988.53
2017-08-14T06:36:50.986Z,988.57
2017-08-14T06:38:01.256Z,988.59
2017-08-14T06:39:11.227Z,988.6
2017-08-14T06:40:21.501Z,988.63
2017-08-14T06:41:31.770Z,988.6
2017-08-14T06:42:41.407Z,988.61
2017-08-14T06:43:51.362Z,988.61
2017-08-14T06:45:01.643Z,988.65
2017-08-14T06:46:11.916Z,988.66
2017-08-14T06:47:22.184Z,988.64
2017-08-14T06:48:32.460Z,988.68
2017-08-14T06:49:42.734Z,988.7
2017-08-14T06:50:52.692Z,988.72
2017-08-14T06:52:02.960Z,988.71
2017-08-14T06:53:13.227Z,988.68
2017-08-14T06:54:23.497Z,988.72
2017-08-14T06:55:33.763Z,988.74
2017-08-14T06:56:43.718Z,988.77
2017-08-14T06:57:53.675Z,988.75
2017-08-14T06:59:03.628Z,988.73
2017-08-14T07:00:13.897Z,988.77
2017-08-14T07:01:23.852Z,988.77
2017-08-14T07:02:34.118Z,988.75
2017-08-14T07:03:44.075Z,988.76
2017-08-14T07:04:54.345Z,988.78
2017-08-14T07:06:04.616Z,988.81
2017-08-14T07:07:14.271Z,988.85
2017-08-14T07:08:24.544Z,988.87
2017-08-14T07:09:34.810Z,988.87
2017-08-14T07:10:45.083Z,988.91
2017-08-14T07:11:55.053Z,988.86
2017-08-14T07:13:05.375Z,988.85
2017-08-14T07:14:15.331Z,988.85
2017-08-14T07:15:25.285Z,988.86
2017-08-14T07:16:34.940Z,988.82
2017-08-14T07:17:44.893Z,988.86
2017-08-14T07:18:54.854Z,988.89
2017-08-14T07:20:05.124Z,988.89
2017-08-14T07:21:15.397Z,988.9
2017-08-14T07:22:25.354Z,988.92
2017-08-14T07:23:35.632Z,988.88
2017-08-14T07:24:45.592Z,988.89
2017-08-14T07:25:55.876Z,988.92
2017-08-14T07:27:06.151Z,988.94
2017-08-14T07:28:16.420Z,988.92
2017-08-14T07:29:26.384Z,988.92
2017-08-14T07:30:36.655Z,988.92
2017-08-14T07:31:46.610Z,988.91
2017-08-14T07:32:56.575Z,988.91
2017-08-14T07:34:06.847Z,988.94
2017-08-14T07:35:17.116Z,988.93
2017-08-14T07:36:27.390Z,988.94
2017-08-14T07:37:37.349Z,988.9
2017-08-14T07:38:47.304Z,988.92
2017-08-14T07:39:57.576Z,988.94
2017-08-14T07:41:07.848Z,988.93
2017-08-14T07:42:18.118Z,988.95
2017-08-14T07:43:28.074Z,988.93
2017-08-14T07:44:38.030Z,988.96
2017-08-14T07:45:47.985Z,988.96
2017-08-14T07:46:57.629Z,988.95
2017-08-14T07:48:07.902Z,988.98
2017-08-14T07:49:20.425Z,989
2017-08-14T07:50:30.404Z,988.99
2017-08-14T07:51:40.373Z,989.02
2017-08-14T07:52:50.648Z,988.99
2017-08-14T07:54:00.919Z,989
2017-08-14T07:55:10.873Z,989
2017-08-14T07:56:20.829Z,989
2017-08-14T07:57:31.098Z,989.05
2017-08-14T07:58:41.065Z,989.05
2017-08-14T07:59:51.041Z,989.08
2017-08-14T08:01:01.313Z,989.1
2017-08-14T08:02:11.590Z,989.05
2017-08-14T08:03:21.866Z,989.07
2017-08-14T08:04:31.824Z,989.04
2017-08-14T08:05:42.097Z,989.05
2017-08-14T08:06:52.372Z,989.08
2017-08-14T08:08:02.334Z,989.08
2017-08-14T08:09:11.978Z,989.08
2017-08-14T08:10:21.619Z,989.1
2017-08-14T08:11:31.265Z,989.11
2017-08-14T08:12:41.231Z,989.12
2017-08-14T08:13:51.505Z,989.12
2017-08-14T08:15:01.780Z,989.16
2017-08-14T08:16:12.049Z,989.17
2017-08-14T08:17:21.712Z,989.15
2017-08-14T08:18:31.986Z,989.15
2017-08-14T08:19:42.266Z,989.2
2017-08-14T08:20:52.538Z,989.19
2017-08-14T08:22:02.516Z,989.22
2017-08-14T08:23:12.789Z,989.18
2017-08-14T08:24:23.060Z,989.23
2017-08-14T08:25:33.339Z,989.21
2017-08-14T08:26:43.298Z,989.2
2017-08-14T08:27:53.571Z,989.18
2017-08-14T08:29:03.846Z,989.27
2017-08-14T08:30:14.113Z,989.22
2017-08-14T08:31:23.760Z,989.3
2017-08-14T08:32:33.724Z,989.29
2017-08-14T08:33:43.686Z,989.32
2017-08-14T08:34:53.956Z,989.32
2017-08-14T08:36:03.916Z,989.34
2017-08-14T08:37:14.190Z,989.33
2017-08-14T08:38:24.469Z,989.35
2017-08-14T08:39:34.741Z,989.3
2017-08-14T08:40:45.013Z,989.36
2017-08-14T08:41:54.968Z,989.36
2017-08-14T08:43:05.317Z,989.34
2017-08-14T08:44:15.589Z,989.37
2017-08-14T08:45:25.232Z,989.36
2017-08-14T08:46:35.507Z,989.39
2017-08-14T08:47:45.792Z,989.4
2017-08-14T08:48:56.067Z,989.41
2017-08-14T08:50:06.029Z,989.43
2017-08-14T08:51:16.300Z,989.44
2017-08-14T08:52:26.260Z,989.49
2017-08-14T08:53:36.544Z,989.45
2017-08-14T08:54:46.184Z,989.46
2017-08-14T08:55:56.146Z,989.42
2017-08-14T08:57:06.104Z,989.45
2017-08-14T08:58:16.375Z,989.49
2017-08-14T08:59:26.333Z,989.44
2017-08-14T09:00:36.290Z,989.45
2017-08-14T09:01:45.933Z,989.43
2017-08-14T09:02:56.209Z,989.45
2017-08-14T09:04:06.165Z,989.44
2017-08-14T09:05:16.128Z,989.46
2017-08-14T09:06:26.087Z,989.47
2017-08-14T09:07:36.361Z,989.5
2017-08-14T09:08:46.012Z,989.45
2017-08-14T09:09:55.977Z,989.49
2017-08-14T09:11:06.252Z,989.52
2017-08-14T09:12:16.211Z,989.49
2017-08-14T09:13:25.854Z,989.54
2017-08-14T09:14:34.868Z,989.52
2017-08-14T09:15:44.836Z,989.55
2017-08-14T09:16:55.118Z,989.55
2017-08-14T09:18:05.393Z,989.57
2017-08-14T09:19:15.706Z,989.56
2017-08-14T09:20:25.039Z,989.52
2017-08-14T09:21:35.313Z,989.56
2017-08-14T09:22:45.590Z,989.57
2017-08-14T09:23:55.869Z,989.56
2017-08-14T09:25:06.144Z,989.49
2017-08-14T09:26:16.425Z,989.53
2017-08-14T09:27:26.390Z,989.58
2017-08-14T09:28:36.672Z,989.53
2017-08-14T09:29:46.947Z,989.57
2017-08-14T09:30:56.911Z,989.55
2017-08-14T09:32:07.187Z,989.51
2017-08-14T09:33:17.147Z,989.55
2017-08-14T09:34:26.793Z,989.55
2017-08-14T09:35:36.756Z,989.6
2017-08-14T09:36:46.725Z,989.57
2017-08-14T09:37:56.681Z,989.52
2017-08-14T09:39:06.957Z,989.54
2017-08-14T09:40:17.232Z,989.53
2017-08-14T09:41:27.507Z,989.57
2017-08-14T09:42:37.479Z,989.55
2017-08-14T09:43:47.755Z,989.54
2017-08-14T09:44:57.399Z,989.54
2017-08-14T09:46:07.700Z,989.54
2017-08-14T09:47:17.348Z,989.58
2017-08-14T09:48:27.619Z,989.57
2017-08-14T09:49:37.583Z,989.57
2017-08-14T09:50:47.540Z,989.6
2017-08-14T09:51:57.914Z,989.59
2017-08-14T09:53:08.208Z,989.56
2017-08-14T09:54:18.166Z,989.58
2017-08-14T09:55:28.137Z,989.58
2017-08-14T09:56:38.434Z,989.53
2017-08-14T09:57:48.394Z,989.53
2017-08-14T09:58:58.667Z,989.52
2017-08-14T10:00:08.623Z,989.52
2017-08-14T10:01:18.900Z,989.54
2017-08-14T10:02:29.179Z,989.57
2017-08-14T10:03:39.455Z,989.59
2017-08-14T10:04:49.419Z,989.54
2017-08-14T10:05:59.714Z,989.54
2017-08-14T10:07:09.994Z,989.56
2017-08-14T10:08:20.272Z,989.52
2017-08-14T10:09:30.551Z,989.58
2017-08-14T10:10:40.830Z,989.56
2017-08-14T10:11:50.475Z,989.61
2017-08-14T10:13:00.435Z,989.6
2017-08-14T10:14:10.094Z,989.58
2017-08-14T10:15:20.057Z,989.56
2017-08-14T10:16:30.015Z,989.59
2017-08-14T10:17:39.975Z,989.57
2017-08-14T10:18:50.266Z,989.59
2017-08-14T10:20:00.543Z,989.57
2017-08-14T10:21:10.194Z,989.57
2017-08-14T10:22:20.153Z,989.56
2017-08-14T10:23:30.112Z,989.61
2017-08-14T10:24:40.071Z,989.62
2017-08-14T10:25:50.349Z,989.61
2017-08-14T10:27:00.312Z,989.61
2017-08-14T10:28:10.588Z,989.58
2017-08-14T10:29:20.565Z,989.63
2017-08-14T10:30:30.211Z,989.62
2017-08-14T10:31:40.495Z,989.63
2017-08-14T10:32:50.770Z,989.63
2017-08-14T10:34:00.414Z,989.58
2017-08-14T10:35:10.068Z,989.64
2017-08-14T10:36:20.347Z,989.56
2017-08-14T10:37:30.303Z,989.6
2017-08-14T10:38:39.951Z,989.59
2017-08-14T10:39:50.231Z,989.58
2017-08-14T10:41:00.530Z,989.59
2017-08-14T10:42:10.853Z,989.65
2017-08-14T10:43:20.815Z,989.64
2017-08-14T10:44:31.096Z,989.64
2017-08-14T10:45:41.066Z,989.66
2017-08-14T10:46:50.404Z,989.64
2017-08-14T10:48:00.708Z,989.66
2017-08-14T10:49:10.351Z,989.68
2017-08-14T10:50:20.626Z,989.66
2017-08-14T10:51:30.583Z,989.62
2017-08-14T10:52:40.862Z,989.64
2017-08-14T10:53:51.141Z,989.57
2017-08-14T10:55:01.104Z,989.59
2017-08-14T10:56:10.757Z,989.58
2017-08-14T10:57:20.718Z,989.57
2017-08-14T10:58:30.363Z,989.59
2017-08-14T10:59:40.331Z,989.62
2017-08-14T11:00:50.609Z,989.58
2017-08-14T11:02:00.902Z,989.59
2017-08-14T11:03:11.177Z,989.58
2017-08-14T11:04:21.138Z,989.58
2017-08-14T11:05:30.784Z,989.64
2017-08-14T11:06:40.756Z,989.62
2017-08-14T11:07:51.036Z,989.59
2017-08-14T11:09:01.311Z,989.61
2017-08-14T11:10:11.271Z,989.58
2017-08-14T11:11:21.546Z,989.59
2017-08-14T11:12:31.822Z,989.63
2017-08-14T11:13:42.135Z,989.63
2017-08-14T11:14:52.436Z,989.64
2017-08-14T11:16:02.084Z,989.56
2017-08-14T11:17:12.359Z,989.6
2017-08-14T11:18:22.633Z,989.57
2017-08-14T11:19:32.280Z,989.6
2017-08-14T11:20:42.240Z,989.61
2017-08-14T11:21:52.527Z,989.59
2017-08-14T11:23:02.805Z,989.56
2017-08-14T11:24:13.100Z,989.62
2017-08-14T11:25:23.376Z,989.61
2017-08-14T11:26:33.659Z,989.6
2017-08-14T11:27:43.628Z,989.63
2017-08-14T11:28:53.902Z,989.68
2017-08-14T11:30:04.184Z,989.65
2017-08-14T11:31:14.459Z,989.72
2017-08-14T11:32:24.737Z,989.81
2017-08-14T11:33:34.709Z,989.75
2017-08-14T11:34:44.677Z,989.67
2017-08-14T11:35:54.955Z,989.65
2017-08-14T11:37:05.236Z,989.71
2017-08-14T11:38:14.889Z,989.68
2017-08-14T11:39:24.855Z,989.57
2017-08-14T11:40:35.147Z,989.67
2017-08-14T11:41:45.111Z,989.71
2017-08-14T11:42:55.078Z,989.54
2017-08-14T11:44:05.363Z,989.41
2017-08-14T11:45:15.339Z,989.62
2017-08-14T11:46:25.628Z,989.63
2017-08-14T11:47:35.937Z,989.57
2017-08-14T11:48:46.297Z,989.57
2017-08-14T11:49:56.585Z,989.47
2017-08-14T11:51:06.557Z,989.59
2017-08-14T11:52:16.527Z,989.54
2017-08-14T11:53:26.497Z,989.57
2017-08-14T11:54:36.471Z,989.43
2017-08-14T11:55:46.452Z,989.56
2017-08-14T11:56:56.434Z,989.2
2017-08-14T11:58:06.729Z,989.56
2017-08-14T11:59:16.701Z,989.47
2017-08-14T12:00:26.360Z,989.56
2017-08-14T12:01:36.330Z,989.21
2017-08-14T12:02:46.641Z,989.3
2017-08-14T12:03:55.986Z,989.5
2017-08-14T12:05:05.962Z,989.71
2017-08-14T12:06:15.937Z,989.68
2017-08-14T12:07:26.228Z,989.24
2017-08-14T12:08:36.201Z,989.35
2017-08-14T12:09:46.179Z,989.55
2017-08-14T12:10:56.480Z,989.71
2017-08-14T12:12:06.768Z,989.71
2017-08-14T12:13:17.055Z,989.85
2017-08-14T12:14:26.706Z,989.56
2017-08-14T12:15:36.994Z,989.5
2017-08-14T12:16:46.651Z,989.76
2017-08-14T12:17:56.309Z,989.66
2017-08-14T12:19:06.280Z,989.78
2017-08-14T12:20:16.257Z,989.72
2017-08-14T12:21:26.550Z,989.74
2017-08-14T12:22:36.835Z,989.72
2017-08-14T12:23:47.124Z,989.71
2017-08-14T12:24:57.415Z,989.67
2017-08-14T12:26:07.705Z,989.39
2017-08-14T12:27:17.998Z,989.42
2017-08-14T12:28:28.283Z,989.45
2017-08-14T12:29:38.256Z,989.84
2017-08-14T12:30:48.576Z,989.76
2017-08-14T12:31:58.869Z,989.74
2017-08-14T12:33:08.527Z,989.76
2017-08-14T12:34:18.503Z,989.73
2017-08-14T12:35:28.509Z,989.45
2017-08-14T12:36:38.806Z,989.63
2017-08-14T12:37:48.780Z,989.86
2017-08-14T12:38:59.081Z,989.64
2017-08-14T12:40:09.056Z,989.6
2017-08-14T12:41:19.027Z,989.86
2017-08-14T12:42:28.686Z,989.44
2017-08-14T12:43:38.659Z,989.44
2017-08-14T12:44:48.638Z,989.44
2017-08-14T12:45:58.927Z,989.84
2017-08-14T12:47:09.214Z,989.85
2017-08-14T12:48:18.900Z,989.95
2017-08-14T12:49:28.877Z,989.4
2017-08-14T12:50:39.165Z,989.49
2017-08-14T12:51:49.146Z,989.47
2017-08-14T12:52:59.119Z,989.47
2017-08-14T12:54:09.119Z,989.46
2017-08-14T12:55:18.777Z,989.45
2017-08-14T12:56:29.065Z,989.4
2017-08-14T12:57:39.036Z,989.44
2017-08-14T12:58:49.009Z,989.96
2017-08-14T12:59:59.293Z,989.95
2017-08-14T13:01:09.263Z,989.96
2017-08-14T13:02:18.921Z,989.94
2017-08-14T13:03:28.891Z,989.83
2017-08-14T13:04:38.873Z,989.83
2017-08-14T13:05:48.844Z,989.88
2017-08-14T13:06:58.514Z,989.84
2017-08-14T13:08:08.808Z,989.9
2017-08-14T13:09:18.785Z,989.94
2017-08-14T13:10:29.130Z,989.94
2017-08-14T13:11:39.108Z,989.97
2017-08-14T13:12:48.770Z,989.98
2017-08-14T13:13:59.062Z,989.94
2017-08-14T13:15:09.354Z,990.03
2017-08-14T13:16:19.648Z,989.84
2017-08-14T13:17:29.640Z,989.86
2017-08-14T13:18:39.931Z,989.88
2017-08-14T13:19:50.215Z,989.89
2017-08-14T13:21:00.504Z,989.91
2017-08-14T13:22:10.480Z,989.87
2017-08-14T13:23:20.771Z,989.97
2017-08-14T13:24:30.748Z,989.9
2017-08-14T13:25:41.043Z,989.91
2017-08-14T13:26:51.021Z,989.94
2017-08-14T13:28:01.002Z,989.93
2017-08-14T13:29:10.663Z,990
2017-08-14T13:30:20.643Z,989.9
2017-08-14T13:31:30.623Z,989.97
2017-08-14T13:32:39.967Z,989.94
2017-08-14T13:33:50.263Z,989.94
2017-08-14T13:35:00.552Z,989.9
2017-08-14T13:36:10.840Z,989.88
2017-08-14T13:37:20.510Z,989.93
2017-08-14T13:38:30.797Z,989.89
2017-08-14T13:39:41.090Z,989.87
2017-08-14T13:40:50.748Z,989.87
2017-08-14T13:42:01.039Z,989.86
2017-08-14T13:43:11.014Z,989.85
2017-08-14T13:44:20.987Z,989.83
2017-08-14T13:45:31.584Z,989.87
2017-08-14T13:46:41.564Z,990
2017-08-14T13:47:50.596Z,990.06
2017-08-14T13:49:00.570Z,990.04
2017-08-14T13:50:10.861Z,990.04
2017-08-14T13:51:20.836Z,990.07
2017-08-14T13:52:30.811Z,990.1
2017-08-14T13:53:41.103Z,990.25
2017-08-14T13:54:50.773Z,990.3
2017-08-14T13:56:01.061Z,990.3
2017-08-14T13:57:11.351Z,990.23
2017-08-14T13:58:21.325Z,990.29
2017-08-14T13:59:31.616Z,990.26
2017-08-14T14:00:41.910Z,990.31
2017-08-14T14:01:52.203Z,990.26
2017-08-14T14:03:02.177Z,990.2
2017-08-14T14:04:12.153Z,990.24
2017-08-14T14:05:22.133Z,990.21
2017-08-14T14:06:32.110Z,990.24
2017-08-14T14:07:42.093Z,989.96
2017-08-14T14:08:52.076Z,989.73
2017-08-14T14:10:02.120Z,989.91
2017-08-14T14:11:12.103Z,990.31
2017-08-14T14:12:22.398Z,990.29
2017-08-14T14:13:32.373Z,990.01
2017-08-14T14:14:42.032Z,990.24
2017-08-14T14:15:51.705Z,990.26
2017-08-14T14:17:01.060Z,990.24
2017-08-14T14:18:11.354Z,990.24
2017-08-14T14:19:21.338Z,990.14
2017-08-14T14:20:31.627Z,990.22
2017-08-14T14:21:41.621Z,990.15
2017-08-14T14:22:51.930Z,990.18
2017-08-14T14:24:01.898Z,990.26
2017-08-14T14:25:11.874Z,990.26
2017-08-14T14:26:21.853Z,990.23
2017-08-14T14:27:32.138Z,990.31
2017-08-14T14:28:42.435Z,990.26
2017-08-14T14:29:52.094Z,990.28
2017-08-14T14:31:02.392Z,990.33
2017-08-14T14:32:12.697Z,990.21
2017-08-14T14:33:22.995Z,990.32
2017-08-14T14:34:33.293Z,990.38
2017-08-14T14:35:43.585Z,990.31
2017-08-14T14:36:53.879Z,990.3
2017-08-14T14:38:03.539Z,990.29